createdAt,value
2022-09-14T00:01:14.273Z,0.90
2022-09-14T00:03:39.782Z,0.73
2022-09-14T00:06:12.112Z,0.70
2022-09-14T00:08:39.561Z,0.45
2022-09-14T00:11:12.275Z,1.65
2022-09-14T00:13:41.039Z,0.50
2022-09-14T00:16:12.854Z,0.57
2022-09-14T00:18:39.871Z,0.38
2022-09-14T00:21:08.528Z,0.65
2022-09-14T00:23:36.520Z,0.25
2022-09-14T00:26:11.273Z,0.20
2022-09-14T00:28:43.207Z,0.40
2022-09-14T00:31:10.760Z,0.90
2022-09-14T00:33:38.384Z,0.60
2022-09-14T00:36:06.968Z,0.30
2022-09-14T00:38:33.807Z,0.32
2022-09-14T00:41:01.410Z,0.50
2022-09-14T00:43:28.264Z,0.20
2022-09-14T00:45:55.123Z,0.38
2022-09-14T00:48:24.646Z,0.40
2022-09-14T00:50:52.091Z,0.32
2022-09-14T00:53:18.807Z,0.22
2022-09-14T00:55:45.794Z,0.50
2022-09-14T00:58:12.442Z,1.42
2022-09-14T01:00:39.180Z,0.25
2022-09-14T01:03:05.919Z,0.60
2022-09-14T01:06:22.026Z,0.20
2022-09-14T01:09:27.193Z,0.30
2022-09-14T01:12:25.783Z,0.50
2022-09-14T01:15:17.824Z,1.85
2022-09-14T01:18:07.926Z,0.60
2022-09-14T01:20:45.868Z,0.38
2022-09-14T01:23:39.651Z,0.13
2022-09-14T01:26:38.331Z,0.30
2022-09-14T01:29:18.139Z,0.50
2022-09-14T01:31:52.756Z,0.50
2022-09-14T01:34:48.681Z,0.40
2022-09-14T01:37:28.913Z,0.40
2022-09-14T01:40:01.545Z,0.35
2022-09-14T01:42:29.324Z,0.03
2022-09-14T01:45:00.255Z,0.22
2022-09-14T01:47:39.298Z,0.40
2022-09-14T01:50:17.594Z,0.20
2022-09-14T01:52:55.005Z,0.32
2022-09-14T01:55:32.142Z,0.10
2022-09-14T01:58:01.501Z,0.20
2022-09-14T02:00:28.441Z,0.75
2022-09-14T02:03:10.994Z,0.35
2022-09-14T02:05:42.796Z,0.30
2022-09-14T02:08:09.582Z,0.15
2022-09-14T02:10:36.257Z,0.20
2022-09-14T02:13:03.088Z,0.45
2022-09-14T02:15:29.783Z,0.20
2022-09-14T02:17:56.558Z,0.55
2022-09-14T02:20:28.958Z,0.68
2022-09-14T02:22:55.851Z,0.20
2022-09-14T02:25:22.841Z,0.40
2022-09-14T02:27:49.854Z,0.30
2022-09-14T02:30:17.222Z,0.20
2022-09-14T02:33:02.329Z,0.17
2022-09-14T02:35:50.110Z,0.35
2022-09-14T02:38:46.836Z,0.38
2022-09-14T02:41:58.821Z,0.30
2022-09-14T02:44:28.491Z,0.30
2022-09-14T02:47:36.951Z,0.20
2022-09-14T02:50:30.255Z,0.38
2022-09-14T02:53:06.074Z,0.50
2022-09-14T02:55:36.602Z,0.20
2022-09-14T02:58:10.207Z,1.05
2022-09-14T03:00:40.360Z,0.30
2022-09-14T03:03:09.008Z,0.30
2022-09-14T03:05:36.399Z,0.70
2022-09-14T03:08:04.063Z,0.52
2022-09-14T03:10:31.791Z,0.20
2022-09-14T03:12:58.831Z,0.30
2022-09-14T03:15:26.160Z,1.00
2022-09-14T03:17:52.920Z,0.20
2022-09-14T03:20:27.921Z,0.20
2022-09-14T03:22:55.179Z,0.20
2022-09-14T03:25:25.124Z,0.20
2022-09-14T03:27:53.831Z,0.28
2022-09-14T03:30:20.778Z,0.45
2022-09-14T03:32:47.775Z,0.20
2022-09-14T03:35:20.116Z,0.35
2022-09-14T03:37:47.961Z,0.10
2022-09-14T03:40:21.367Z,0.30
2022-09-14T03:42:50.520Z,0.20
2022-09-14T03:45:18.348Z,0.20
2022-09-14T03:47:46.719Z,0.30
2022-09-14T03:50:14.571Z,0.22
2022-09-14T03:52:41.442Z,1.10
2022-09-14T03:55:09.486Z,0.30
2022-09-14T03:57:37.202Z,0.50
2022-09-14T04:00:05.695Z,1.17
2022-09-14T04:02:38.358Z,0.98
2022-09-14T04:05:05.655Z,0.28
2022-09-14T04:07:32.366Z,0.75
2022-09-14T04:09:59.083Z,0.20
2022-09-14T04:12:25.785Z,1.23
2022-09-14T04:14:52.422Z,0.30
2022-09-14T04:17:19.214Z,0.13
2022-09-14T04:19:45.886Z,0.20
2022-09-14T04:22:12.610Z,0.50
2022-09-14T04:24:39.265Z,0.52
2022-09-14T04:27:06.106Z,0.57
2022-09-14T04:29:33.195Z,0.15
2022-09-14T04:32:01.734Z,0.13
2022-09-14T04:34:28.386Z,0.90
2022-09-14T04:36:55.259Z,0.63
2022-09-14T04:39:22.392Z,1.45
2022-09-14T04:41:49.220Z,0.40
2022-09-14T04:44:16.042Z,0.17
2022-09-14T04:46:46.579Z,0.25
2022-09-14T04:49:15.591Z,0.52
2022-09-14T04:51:42.503Z,0.20
2022-09-14T04:54:10.002Z,0.25
2022-09-14T04:56:37.168Z,0.82
2022-09-14T04:59:05.730Z,0.60
2022-09-14T05:01:36.374Z,1.20
2022-09-14T05:04:04.409Z,0.30
2022-09-14T05:06:32.871Z,0.47
2022-09-14T05:09:00.480Z,0.40
2022-09-14T05:11:31.162Z,0.82
2022-09-14T05:13:59.078Z,0.68
2022-09-14T05:16:34.025Z,0.68
2022-09-14T05:19:03.147Z,0.73
2022-09-14T05:21:31.154Z,0.20
2022-09-14T05:24:03.839Z,0.80
2022-09-14T05:26:32.211Z,0.30
2022-09-14T05:29:04.661Z,0.25
2022-09-14T05:31:35.976Z,0.50
2022-09-14T05:34:14.937Z,0.47
2022-09-14T05:36:52.705Z,1.38
2022-09-14T05:39:23.427Z,0.50
2022-09-14T05:41:53.629Z,0.20
2022-09-14T05:44:28.940Z,0.40
2022-09-14T05:47:02.480Z,0.65
2022-09-14T05:49:33.541Z,0.47
2022-09-14T05:52:04.885Z,0.10
2022-09-14T05:54:36.968Z,0.75
2022-09-14T05:57:17.712Z,0.47
2022-09-14T05:59:48.639Z,0.20
2022-09-14T06:02:26.579Z,0.15
2022-09-14T06:04:57.896Z,0.90
2022-09-14T06:07:25.439Z,0.40
2022-09-14T06:09:52.093Z,0.60
2022-09-14T06:12:18.818Z,0.30
2022-09-14T06:14:45.458Z,0.20
2022-09-14T06:17:12.191Z,0.30
2022-09-14T06:19:38.835Z,0.22
2022-09-14T06:22:05.697Z,0.30
2022-09-14T06:24:41.430Z,0.43
2022-09-14T06:27:09.256Z,0.52
2022-09-14T06:29:37.234Z,0.10
2022-09-14T06:32:04.637Z,0.20
2022-09-14T06:34:31.450Z,0.10
2022-09-14T06:36:58.222Z,0.47
2022-09-14T06:39:24.967Z,0.20
2022-09-14T06:41:52.070Z,0.20
2022-09-14T06:44:19.538Z,0.22
2022-09-14T06:46:47.694Z,0.30
2022-09-14T06:49:20.721Z,0.30
2022-09-14T06:51:47.825Z,0.55
2022-09-14T06:54:15.970Z,0.50
2022-09-14T06:56:43.980Z,0.20
2022-09-14T06:59:12.630Z,0.40
2022-09-14T07:01:40.104Z,0.20
2022-09-14T07:04:07.054Z,0.82
2022-09-14T07:06:43.060Z,1.02
2022-09-14T07:09:10.699Z,0.50
2022-09-14T07:11:38.350Z,0.50
2022-09-14T07:14:05.706Z,0.77
2022-09-14T07:16:33.657Z,0.57
2022-09-14T07:19:02.983Z,0.30
2022-09-14T07:21:31.207Z,0.40
2022-09-14T07:23:58.372Z,0.57
2022-09-14T07:26:30.818Z,0.77
2022-09-14T07:29:00.765Z,0.32
2022-09-14T07:31:33.572Z,0.32
2022-09-14T07:34:04.663Z,0.52
2022-09-14T07:36:35.058Z,0.40
2022-09-14T07:39:04.614Z,0.40
2022-09-14T07:41:33.116Z,0.52
2022-09-14T07:44:01.380Z,0.40
2022-09-14T07:46:29.427Z,0.50
2022-09-14T07:49:01.278Z,0.20
2022-09-14T07:51:29.120Z,0.60
2022-09-14T07:53:55.994Z,0.30
2022-09-14T07:56:22.798Z,0.22
2022-09-14T07:58:55.459Z,0.35
2022-09-14T08:01:26.076Z,1.05
2022-09-14T08:03:52.852Z,0.30
2022-09-14T08:06:22.578Z,0.85
2022-09-14T08:08:51.891Z,0.90
2022-09-14T08:11:21.386Z,0.27
2022-09-14T08:14:15.740Z,0.30
2022-09-14T08:16:42.500Z,0.40
2022-09-14T08:19:16.778Z,0.63
2022-09-14T08:21:46.896Z,0.50
2022-09-14T08:24:19.626Z,0.40
2022-09-14T08:26:47.197Z,0.20
2022-09-14T08:29:15.854Z,0.40
2022-09-14T08:31:45.509Z,0.50
2022-09-14T08:34:13.352Z,0.30
2022-09-14T08:36:41.300Z,0.50
2022-09-14T08:39:09.485Z,0.90
2022-09-14T08:41:56.370Z,0.38
2022-09-14T08:44:27.383Z,1.08
2022-09-14T08:47:05.980Z,0.43
2022-09-14T08:49:46.053Z,0.63
2022-09-14T08:54:54.179Z,0.30
2022-09-14T08:57:43.086Z,0.63
2022-09-14T09:00:14.334Z,0.40
2022-09-14T09:03:09.191Z,0.80
2022-09-14T09:05:43.830Z,0.32
2022-09-14T09:08:37.004Z,0.30
2022-09-14T09:11:05.743Z,0.43
2022-09-14T09:13:36.546Z,0.60
2022-09-14T09:16:05.371Z,0.40
2022-09-14T09:18:50.572Z,0.68
2022-09-14T09:21:23.600Z,0.63
2022-09-14T09:23:50.322Z,0.20
2022-09-14T09:26:28.243Z,0.20
2022-09-14T09:28:57.581Z,0.50
2022-09-14T09:31:36.385Z,0.68
2022-09-14T09:34:30.085Z,0.70
2022-09-14T09:37:23.271Z,0.30
2022-09-14T09:39:51.174Z,0.50
2022-09-14T09:42:23.478Z,0.47
2022-09-14T09:45:04.371Z,0.20
2022-09-14T09:47:34.950Z,0.40
2022-09-14T09:50:17.367Z,0.38
2022-09-14T09:53:04.589Z,0.68
2022-09-14T09:55:37.755Z,0.10
2022-09-14T09:58:25.944Z,0.45
2022-09-14T10:00:58.462Z,0.20
2022-09-14T10:03:52.863Z,0.13
2022-09-14T10:06:19.599Z,0.20
2022-09-14T10:08:49.084Z,0.20
2022-09-14T10:11:37.811Z,0.20
2022-09-14T10:14:05.858Z,0.20
2022-09-14T10:16:39.090Z,0.10
2022-09-14T10:19:14.461Z,0.20
2022-09-14T10:22:24.297Z,0.30
2022-09-14T10:24:55.998Z,0.20
2022-09-14T10:27:42.574Z,0.20
2022-09-14T10:30:34.602Z,0.20
2022-09-14T10:33:06.658Z,0.17
2022-09-14T10:35:42.983Z,0.52
2022-09-14T10:38:30.980Z,0.10
2022-09-14T10:41:23.593Z,0.40
2022-09-14T10:43:58.134Z,0.30
2022-09-14T10:46:30.753Z,1.13
2022-09-14T10:49:10.241Z,0.50
2022-09-14T10:52:03.329Z,0.10
2022-09-14T10:54:45.117Z,1.17
2022-09-14T10:57:20.897Z,0.17
2022-09-14T10:59:55.919Z,0.20
2022-09-14T11:02:37.204Z,0.10
2022-09-14T11:05:23.981Z,0.10
2022-09-14T11:08:29.903Z,0.25
2022-09-14T11:11:09.365Z,0.10
2022-09-14T11:13:44.070Z,0.10
2022-09-14T11:16:29.870Z,0.17
2022-09-14T11:19:30.667Z,0.28
2022-09-14T11:22:26.174Z,0.10
2022-09-14T11:25:04.498Z,0.10
2022-09-14T11:27:38.854Z,0.10
2022-09-14T11:30:06.149Z,0.10
2022-09-14T11:32:55.987Z,0.10
2022-09-14T11:35:26.101Z,0.10
2022-09-14T11:38:00.850Z,0.10
2022-09-14T11:40:37.182Z,0.10
2022-09-14T11:43:09.896Z,0.10
2022-09-14T11:45:42.881Z,0.10
2022-09-14T11:51:29.670Z,0.10
2022-09-14T11:53:56.440Z,0.20
2022-09-14T11:56:26.794Z,0.13
2022-09-14T11:58:55.949Z,0.10
2022-09-14T12:01:37.437Z,0.10
2022-09-14T12:04:07.504Z,0.10
2022-09-14T12:06:34.165Z,0.10
2022-09-14T12:09:12.829Z,0.10
2022-09-14T12:11:40.891Z,0.10
2022-09-14T12:14:36.701Z,0.32
2022-09-14T12:20:33.223Z,0.10
2022-09-14T12:23:21.098Z,0.35
2022-09-14T12:26:19.825Z,0.20
2022-09-14T12:28:48.836Z,0.10
2022-09-14T12:31:35.172Z,0.47
2022-09-14T12:34:18.137Z,0.10
2022-09-14T12:36:44.796Z,0.20
2022-09-14T12:39:27.509Z,0.10
2022-09-14T12:41:54.174Z,0.50
2022-09-14T12:44:36.003Z,0.10
2022-09-14T12:47:24.408Z,0.10
2022-09-14T12:49:53.101Z,0.10
2022-09-14T12:52:34.879Z,0.10
2022-09-14T12:55:27.927Z,0.20
2022-09-14T12:58:21.817Z,0.20
2022-09-14T13:01:26.948Z,0.30
2022-09-14T13:03:55.395Z,0.22
2022-09-14T13:06:24.762Z,0.22
2022-09-14T13:08:57.676Z,0.10
2022-09-14T13:11:28.734Z,0.40
2022-09-14T13:13:56.602Z,0.10
2022-09-14T13:16:39.764Z,0.20
2022-09-14T13:19:27.746Z,0.30
2022-09-14T13:21:56.781Z,0.17
2022-09-14T13:24:26.190Z,0.47
2022-09-14T13:26:55.390Z,0.20
2022-09-14T13:29:22.174Z,0.20
2022-09-14T13:31:49.442Z,0.20
2022-09-14T13:34:37.212Z,0.75
2022-09-14T13:37:04.540Z,0.20
2022-09-14T13:39:37.522Z,0.35
2022-09-14T13:42:05.374Z,0.25
2022-09-14T13:44:50.729Z,0.50
2022-09-14T13:47:20.829Z,0.10
2022-09-14T13:49:48.536Z,0.52
2022-09-14T13:52:34.301Z,0.47
2022-09-14T13:55:20.560Z,0.10
2022-09-14T13:58:11.632Z,0.20
2022-09-14T14:01:00.451Z,0.20
2022-09-14T14:03:41.535Z,0.30
2022-09-14T14:06:21.467Z,0.43
2022-09-14T14:09:08.312Z,0.20
2022-09-14T14:11:35.331Z,0.45
2022-09-14T14:14:17.245Z,0.30
2022-09-14T14:17:21.563Z,0.20
2022-09-14T14:19:50.125Z,0.10
2022-09-14T14:22:26.773Z,0.50
2022-09-14T14:25:12.761Z,0.30
2022-09-14T14:27:43.803Z,0.30
2022-09-14T14:32:50.535Z,0.35
2022-09-14T14:35:20.161Z,0.52
2022-09-14T14:37:47.881Z,0.57
2022-09-14T14:40:15.577Z,0.40
2022-09-14T14:42:42.844Z,0.25
2022-09-14T14:45:20.721Z,0.20
2022-09-14T14:47:48.293Z,0.28
2022-09-14T14:50:16.704Z,0.20
2022-09-14T14:52:43.443Z,0.20
2022-09-14T14:55:10.565Z,0.20
2022-09-14T14:57:40.060Z,0.45
2022-09-14T15:00:13.497Z,0.57
2022-09-14T15:02:40.272Z,0.40
2022-09-14T15:05:07.431Z,0.32
2022-09-14T15:07:37.640Z,0.30
2022-09-14T15:10:06.003Z,0.50
2022-09-14T15:12:33.214Z,0.50
2022-09-14T15:15:00.160Z,0.40
2022-09-14T15:17:27.067Z,0.47
2022-09-14T15:19:53.814Z,0.20
2022-09-14T15:22:20.830Z,0.50
2022-09-14T15:24:47.627Z,0.30
2022-09-14T15:29:41.552Z,1.25
2022-09-14T15:32:08.197Z,2.20
2022-09-14T15:34:34.948Z,1.55
2022-09-14T15:37:01.719Z,0.60
2022-09-14T15:39:31.253Z,0.40
2022-09-14T15:41:58.229Z,0.60
2022-09-14T15:44:25.013Z,0.50
2022-09-14T15:46:51.948Z,2.28
2022-09-14T15:49:21.235Z,1.90
2022-09-14T15:51:50.485Z,2.40
2022-09-14T15:54:18.205Z,2.33
2022-09-14T15:56:50.477Z,0.65
2022-09-14T15:59:18.259Z,1.30
2022-09-14T16:01:45.381Z,0.32
2022-09-14T16:04:12.523Z,0.85
2022-09-14T16:06:40.278Z,0.70
2022-09-14T16:09:08.751Z,2.50
2022-09-14T16:11:36.228Z,2.53
2022-09-14T16:14:05.552Z,2.65
2022-09-14T16:16:33.864Z,2.97
2022-09-14T16:19:08.694Z,3.05
2022-09-14T16:21:35.843Z,3.80
2022-09-14T16:24:06.038Z,3.67
2022-09-14T16:26:34.802Z,3.95
2022-09-14T16:29:01.859Z,4.75
2022-09-14T16:31:31.049Z,3.63
2022-09-14T16:33:59.966Z,3.47
2022-09-14T16:36:29.147Z,1.17
2022-09-14T16:38:57.890Z,0.50
2022-09-14T16:41:24.736Z,0.28
2022-09-14T16:51:20.764Z,0.20
2022-09-14T16:53:48.381Z,0.30
2022-09-14T16:56:17.485Z,0.82
2022-09-14T16:58:45.582Z,0.20
2022-09-14T17:03:42.854Z,0.15
2022-09-14T17:06:16.065Z,0.47
2022-09-14T17:08:44.076Z,0.20
2022-09-14T17:48:02.469Z,0.10
2022-09-14T17:50:29.758Z,0.20
2022-09-14T18:10:05.141Z,0.55
2022-09-14T18:12:36.437Z,0.20
2022-09-14T18:15:04.313Z,0.17
2022-09-14T18:17:31.391Z,0.45
2022-09-14T18:19:58.722Z,0.20
2022-09-14T18:22:25.978Z,0.20
2022-09-14T18:24:52.724Z,0.47
2022-09-14T18:27:19.855Z,0.20
2022-09-14T18:29:46.877Z,0.40
2022-09-14T18:32:13.642Z,0.50
2022-09-14T18:34:40.456Z,0.20
2022-09-14T18:37:07.133Z,0.20
2022-09-14T18:39:33.823Z,0.10
2022-09-14T18:42:00.653Z,0.63
2022-09-14T18:44:27.707Z,0.10
2022-09-14T18:46:54.420Z,0.10
2022-09-14T18:49:21.287Z,0.50
2022-09-14T18:51:47.933Z,0.20
2022-09-14T18:54:14.874Z,0.30
2022-09-14T18:56:41.767Z,0.28
2022-09-14T18:59:18.401Z,0.43
2022-09-14T19:01:45.885Z,0.20
2022-09-14T19:04:12.921Z,0.10
2022-09-14T19:06:41.598Z,0.20
2022-09-14T19:09:08.991Z,0.57
2022-09-14T19:11:36.067Z,0.25
2022-09-14T19:14:10.269Z,0.10
2022-09-14T19:16:39.091Z,0.10
2022-09-14T19:19:07.247Z,0.55
2022-09-14T19:21:34.024Z,0.40
2022-09-14T19:24:06.871Z,0.10
2022-09-14T19:26:43.988Z,0.10
2022-09-14T19:29:15.958Z,0.10
2022-09-14T19:31:42.950Z,0.17
2022-09-14T19:34:10.496Z,0.10
2022-09-14T19:36:37.195Z,0.20
2022-09-14T19:39:04.619Z,0.10
2022-09-14T19:41:33.127Z,0.20
2022-09-14T19:44:01.025Z,0.10
2022-09-14T19:46:28.567Z,0.40
2022-09-14T19:48:55.839Z,0.63
2022-09-14T19:51:25.905Z,0.22
2022-09-14T19:53:54.821Z,0.28
2022-09-14T19:56:25.540Z,0.45
2022-09-14T19:58:53.929Z,0.47
2022-09-14T20:01:22.496Z,0.25
2022-09-14T20:03:49.980Z,0.38
2022-09-14T20:06:26.090Z,0.20
2022-09-14T20:08:55.894Z,0.20
2022-09-14T20:11:25.946Z,0.15
2022-09-14T20:13:57.394Z,0.52
2022-09-14T20:16:29.226Z,0.10
2022-09-14T20:18:57.997Z,0.35
2022-09-14T20:21:26.062Z,0.10
2022-09-14T20:24:15.170Z,0.10
2022-09-14T20:29:10.207Z,0.20
2022-09-14T20:31:37.302Z,0.22
2022-09-14T20:34:04.489Z,0.17
2022-09-14T20:36:31.459Z,0.28
2022-09-14T20:38:59.447Z,0.57
2022-09-14T20:41:29.541Z,0.65
2022-09-14T20:43:56.838Z,0.63
2022-09-14T20:46:30.991Z,0.10
2022-09-14T20:48:58.403Z,0.20
2022-09-14T20:51:25.262Z,0.10
2022-09-14T20:53:52.527Z,0.30
2022-09-14T20:56:25.652Z,0.38
2022-09-14T20:58:57.083Z,0.10
2022-09-14T21:01:27.867Z,0.10
2022-09-14T21:04:07.968Z,0.15
2022-09-14T21:06:37.596Z,0.10
2022-09-14T21:09:08.838Z,0.00
2022-09-14T21:11:36.683Z,0.20
2022-09-14T21:14:04.325Z,0.20
2022-09-14T21:16:37.702Z,0.20
2022-09-14T21:19:16.781Z,0.22
2022-09-14T21:21:44.058Z,0.40
2022-09-14T21:24:13.300Z,1.85
2022-09-14T21:26:44.087Z,0.10
2022-09-14T21:29:17.293Z,0.20
2022-09-14T21:31:44.727Z,0.20
2022-09-14T21:34:11.822Z,0.10
2022-09-14T21:36:41.626Z,0.30
2022-09-14T21:39:11.613Z,0.22
2022-09-14T21:41:40.149Z,0.38
2022-09-14T21:44:06.813Z,0.55
2022-09-14T21:46:33.733Z,0.10
2022-09-14T21:49:00.610Z,0.10
2022-09-14T21:51:29.678Z,0.10
2022-09-14T21:53:59.257Z,0.25
2022-09-14T21:56:33.818Z,0.20
2022-09-14T21:59:03.585Z,0.00
2022-09-14T22:01:30.692Z,1.25
2022-09-14T22:03:57.915Z,0.10
2022-09-14T22:06:27.440Z,0.63
2022-09-14T22:08:55.042Z,0.10
2022-09-14T22:11:26.381Z,0.10
2022-09-14T22:13:54.354Z,0.10
2022-09-14T22:16:22.519Z,0.22
2022-09-14T22:18:56.419Z,0.10
2022-09-14T22:21:24.691Z,0.10
2022-09-14T22:23:53.728Z,0.95
2022-09-14T22:26:21.085Z,0.20
2022-09-14T22:28:49.131Z,0.10
2022-09-14T22:31:17.866Z,0.10
2022-09-14T22:33:44.806Z,0.15
2022-09-14T22:36:11.995Z,0.10
2022-09-14T22:38:40.990Z,0.20
2022-09-14T22:41:15.227Z,0.20
2022-09-14T22:43:42.031Z,0.28
2022-09-14T22:46:09.058Z,0.38
2022-09-14T22:48:36.625Z,0.20
2022-09-14T22:51:05.049Z,0.10
2022-09-14T22:53:31.976Z,0.85
2022-09-14T22:55:58.723Z,0.10
2022-09-14T22:58:27.202Z,0.10
2022-09-14T23:00:54.022Z,0.20
2022-09-14T23:03:21.203Z,0.13
2022-09-14T23:05:53.061Z,0.25
2022-09-14T23:08:20.207Z,0.10
2022-09-14T23:10:48.040Z,0.10
2022-09-14T23:13:15.826Z,0.10
2022-09-14T23:15:42.894Z,0.30
2022-09-14T23:18:10.030Z,0.30
2022-09-14T23:20:41.381Z,0.10
2022-09-14T23:23:08.327Z,0.10
2022-09-14T23:25:36.082Z,0.20
2022-09-14T23:28:04.075Z,0.30
2022-09-14T23:30:31.410Z,0.75
2022-09-14T23:32:59.315Z,0.32
2022-09-14T23:35:27.026Z,0.75
2022-09-14T23:37:54.269Z,0.10
2022-09-14T23:40:21.337Z,0.15
2022-09-14T23:42:48.141Z,0.20
2022-09-14T23:45:15.306Z,0.20
2022-09-14T23:47:42.200Z,0.13
2022-09-14T23:50:09.305Z,0.32
2022-09-14T23:52:36.921Z,0.35
2022-09-14T23:55:04.361Z,0.73
2022-09-14T23:57:31.078Z,0.38
2022-09-14T23:59:58.589Z,0.17
